LSZHLSZS

Guest
Details From LSZH - Zurich
To LSZS - Samedan
Flight Number -
Tags generated
Created
Modified
Stats Distance 78 nm / 145 km
Max Altitude 8,300 ft / 2,530 m
Waypoints 3
Social Downloads 7
Likes 0
Share VATSIM

Download

Looking for another format? Having issues loading an existing format? Contact us
Advertisement - Login to hide

Notes

Basic altitude profile: - Ascent Rate: 2500ft/min - Ascent Speed: 250kts - Cruise Altitude: 35000ft - Cruise Speed: 420kts - Descent Rate: 1500ft/min - Descent Speed: 250kts Options: - Use NATs: yes - Use PACOTS: yes - Use low airways: yes - Use high airways: yes

Route

LSZH ELMUR LSZS

ID Type Via Altitude Latitude Longitude Leg Dist Tot Dist Heading (true) Name
O LSZH APT - 0 ft / 0 m 47.46349˚ 8.54996˚ - 0 nm - Zurich
ELMUR FIX - 8,300 ft / 2,530 m 47.15667˚ 8.90750˚ 23 nm 23 nm 142° / 142° -
O LSZS APT - 0 ft / 0 m 46.53421˚ 9.88394˚ 54 nm 78 nm 133° / 133° Samedan

Altitude Profile

Advertisement - Login to hide

LSZH

Details ICAO LSZH (ZRH)
Name Zurich
Region Switzerland
Timezone Europe/Zurich (UTC+1.0)
Stats Elevation 1,416 ft / 432 m (AMSL)
Location 47.463489° 8.549964°
Runways 3
Magnetic Variation 2.347° E

METAR

LSZH 171020Z 23005KT 170V260 9999 VCSH FEW017 SCT033 BKN060 01/M02 Q1024 NOSIG

Decode

TAF

TAF LSZH 170825Z 1709/1815 25007KT 9999 FEW035 BKN045 TX02/1714Z TNM03/1804Z TX01/1814Z PROB40 TEMPO 1709/1715 3000 -SHSN BKN010 TEMPO 1712/1716 29008KT BECMG 1804/1806 1000 SN VV007 TEMPO 1809/1812 2500 -SN BKN008 BECMG 1812/1815 3000 NSW BKN010

Decode

Departure Runways

ID Width Length Bearing (true) Bearing (mag) Surface Threshold Offset Overrun Length
10 197 ft / 60 m 8,180 ft / 2,493 m 95.98° 93.63° Concrete 0 ft / 0 m 197 ft / 60 m
14 197 ft / 60 m 10,816 ft / 3,297 m 137.30° 134.95° Concrete 492 ft / 150 m 0 ft / 0 m
16 197 ft / 60 m 12,137 ft / 3,699 m 155.00° 152.65° Concrete 0 ft / 0 m 197 ft / 60 m
28 197 ft / 60 m 8,180 ft / 2,493 m 276.01° 273.66° Concrete 0 ft / 0 m 197 ft / 60 m
32 197 ft / 60 m 10,816 ft / 3,297 m 317.32° 314.97° Concrete 0 ft / 0 m 197 ft / 60 m
34 197 ft / 60 m 12,137 ft / 3,699 m 335.01° 332.66° Concrete 1,542 ft / 470 m 0 ft / 0 m

LSZS

Details ICAO LSZS (SMV)
Name Samedan
Region Switzerland
Timezone Europe/Zurich (UTC+1.0)
Stats Elevation 5,600 ft / 1,707 m (AMSL)
Location 46.534207° 9.883938°
Runways 1
Magnetic Variation 2.658° E

METAR

LSZS 171020Z VRB01KT 9999 FEW035 SCT046 M07/M10 Q1016 R03/CLRD// RMK H

Decode

TAF

Not found

Destination Runways

ID Width Length Bearing (true) Bearing (mag) Surface Threshold Offset Overrun Length
03 131 ft / 40 m 6,059 ft / 1,847 m 29.10° 26.44° Asphalt 0 ft / 0 m 0 ft / 0 m
21 131 ft / 40 m 6,059 ft / 1,847 m 209.10° 206.44° Asphalt 361 ft / 110 m 0 ft / 0 m

Popular Alternatives